sensor_id;sensor_type;location;lat;lon;timestamp;P1;durP1;ratioP1;P2;durP2;ratioP2
40533;SDS011;26233;51.894;10.192;2023-02-08T00:00:12;1.50;;;1.40;;
40533;SDS011;26233;51.894;10.192;2023-02-08T00:02:40;1.27;;;1.17;;
40533;SDS011;26233;51.894;10.192;2023-02-08T00:05:07;1.10;;;1.00;;
40533;SDS011;26233;51.894;10.192;2023-02-08T00:07:34;1.20;;;1.10;;
40533;SDS011;26233;51.894;10.192;2023-02-08T00:10:01;0.83;;;0.83;;
40533;SDS011;26233;51.894;10.192;2023-02-08T00:12:30;1.20;;;1.10;;
40533;SDS011;26233;51.894;10.192;2023-02-08T00:14:58;1.23;;;1.10;;
40533;SDS011;26233;51.894;10.192;2023-02-08T00:17:26;1.40;;;1.30;;
40533;SDS011;26233;51.894;10.192;2023-02-08T00:19:53;1.53;;;1.43;;
40533;SDS011;26233;51.894;10.192;2023-02-08T00:22:20;1.60;;;1.50;;
40533;SDS011;26233;51.894;10.192;2023-02-08T00:24:48;1.93;;;1.60;;
40533;SDS011;26233;51.894;10.192;2023-02-08T00:27:16;1.50;;;1.40;;
40533;SDS011;26233;51.894;10.192;2023-02-08T00:29:43;1.60;;;1.40;;
40533;SDS011;26233;51.894;10.192;2023-02-08T00:32:12;1.37;;;1.20;;
40533;SDS011;26233;51.894;10.192;2023-02-08T00:34:41;1.77;;;1.40;;
40533;SDS011;26233;51.894;10.192;2023-02-08T00:37:08;1.40;;;1.30;;
40533;SDS011;26233;51.894;10.192;2023-02-08T00:39:35;1.40;;;1.30;;
40533;SDS011;26233;51.894;10.192;2023-02-08T00:42:02;1.37;;;1.27;;
40533;SDS011;26233;51.894;10.192;2023-02-08T00:44:29;1.47;;;1.37;;
40533;SDS011;26233;51.894;10.192;2023-02-08T00:46:56;1.37;;;1.27;;
40533;SDS011;26233;51.894;10.192;2023-02-08T00:49:23;1.20;;;1.10;;
40533;SDS011;26233;51.894;10.192;2023-02-08T00:51:51;1.70;;;1.40;;
40533;SDS011;26233;51.894;10.192;2023-02-08T00:54:19;1.30;;;1.20;;
40533;SDS011;26233;51.894;10.192;2023-02-08T00:56:46;1.93;;;1.50;;
40533;SDS011;26233;51.894;10.192;2023-02-08T00:59:13;1.50;;;1.40;;
40533;SDS011;26233;51.894;10.192;2023-02-08T01:01:41;1.30;;;1.20;;
40533;SDS011;26233;51.894;10.192;2023-02-08T01:04:08;1.60;;;1.50;;
40533;SDS011;26233;51.894;10.192;2023-02-08T01:06:35;1.53;;;1.40;;
40533;SDS011;26233;51.894;10.192;2023-02-08T01:09:03;1.90;;;1.70;;
40533;SDS011;26233;51.894;10.192;2023-02-08T01:11:30;2.80;;;1.87;;
40533;SDS011;26233;51.894;10.192;2023-02-08T01:13:57;2.00;;;1.77;;
40533;SDS011;26233;51.894;10.192;2023-02-08T01:16:25;1.80;;;1.50;;
40533;SDS011;26233;51.894;10.192;2023-02-08T01:18:54;2.90;;;1.70;;
40533;SDS011;26233;51.894;10.192;2023-02-08T01:21:24;2.20;;;1.80;;
40533;SDS011;26233;51.894;10.192;2023-02-08T01:23:53;2.23;;;1.93;;
40533;SDS011;26233;51.894;10.192;2023-02-08T01:26:22;2.07;;;1.67;;
40533;SDS011;26233;51.894;10.192;2023-02-08T01:28:50;2.03;;;1.70;;
40533;SDS011;26233;51.894;10.192;2023-02-08T01:31:19;3.70;;;2.60;;
40533;SDS011;26233;51.894;10.192;2023-02-08T01:33:49;2.10;;;1.90;;
40533;SDS011;26233;51.894;10.192;2023-02-08T01:36:16;1.57;;;1.47;;
40533;SDS011;26233;51.894;10.192;2023-02-08T01:38:44;1.73;;;1.40;;
40533;SDS011;26233;51.894;10.192;2023-02-08T01:41:13;1.60;;;1.30;;
40533;SDS011;26233;51.894;10.192;2023-02-08T01:47:21;1.20;;;1.10;;
40533;SDS011;26233;51.894;10.192;2023-02-08T01:49:48;1.83;;;1.40;;
40533;SDS011;26233;51.894;10.192;2023-02-08T01:52:16;4.00;;;2.60;;
40533;SDS011;26233;51.894;10.192;2023-02-08T01:54:47;2.73;;;1.67;;
40533;SDS011;26233;51.894;10.192;2023-02-08T01:57:18;2.13;;;1.40;;
40533;SDS011;26233;51.894;10.192;2023-02-08T01:59:49;1.70;;;1.50;;
40533;SDS011;26233;51.894;10.192;2023-02-08T02:02:22;3.00;;;1.77;;
40533;SDS011;26233;51.894;10.192;2023-02-08T02:04:50;2.70;;;1.80;;
40533;SDS011;26233;51.894;10.192;2023-02-08T02:07:18;2.20;;;1.83;;
40533;SDS011;26233;51.894;10.192;2023-02-08T02:09:48;2.00;;;1.90;;
40533;SDS011;26233;51.894;10.192;2023-02-08T02:12:21;2.70;;;2.37;;
40533;SDS011;26233;51.894;10.192;2023-02-08T02:14:49;2.50;;;2.30;;
40533;SDS011;26233;51.894;10.192;2023-02-08T02:17:17;2.90;;;2.60;;
40533;SDS011;26233;51.894;10.192;2023-02-08T02:19:49;3.93;;;2.80;;
40533;SDS011;26233;51.894;10.192;2023-02-08T02:22:35;3.37;;;2.80;;
40533;SDS011;26233;51.894;10.192;2023-02-08T02:25:42;3.00;;;2.60;;
40533;SDS011;26233;51.894;10.192;2023-02-08T02:35:01;3.17;;;2.67;;
40533;SDS011;26233;51.894;10.192;2023-02-08T02:37:38;3.40;;;3.10;;
40533;SDS011;26233;51.894;10.192;2023-02-08T02:40:18;3.23;;;2.90;;
40533;SDS011;26233;51.894;10.192;2023-02-08T02:42:57;3.30;;;2.70;;
40533;SDS011;26233;51.894;10.192;2023-02-08T02:45:50;3.30;;;2.87;;
40533;SDS011;26233;51.894;10.192;2023-02-08T02:48:28;3.20;;;2.70;;
40533;SDS011;26233;51.894;10.192;2023-02-08T02:50:59;3.17;;;2.63;;
40533;SDS011;26233;51.894;10.192;2023-02-08T02:53:35;2.80;;;2.57;;
40533;SDS011;26233;51.894;10.192;2023-02-08T02:56:10;3.10;;;2.80;;
40533;SDS011;26233;51.894;10.192;2023-02-08T02:58:43;4.10;;;3.70;;
40533;SDS011;26233;51.894;10.192;2023-02-08T03:01:11;5.10;;;3.30;;
40533;SDS011;26233;51.894;10.192;2023-02-08T03:03:39;3.73;;;3.37;;
40533;SDS011;26233;51.894;10.192;2023-02-08T03:06:08;4.23;;;3.20;;
40533;SDS011;26233;51.894;10.192;2023-02-08T03:11:45;6.20;;;4.77;;
40533;SDS011;26233;51.894;10.192;2023-02-08T03:14:26;5.70;;;4.07;;
40533;SDS011;26233;51.894;10.192;2023-02-08T03:17:02;5.17;;;4.23;;
40533;SDS011;26233;51.894;10.192;2023-02-08T03:19:53;4.93;;;3.67;;
40533;SDS011;26233;51.894;10.192;2023-02-08T03:22:31;4.47;;;3.67;;
40533;SDS011;26233;51.894;10.192;2023-02-08T03:25:09;4.67;;;4.23;;
40533;SDS011;26233;51.894;10.192;2023-02-08T03:27:44;4.03;;;3.57;;
40533;SDS011;26233;51.894;10.192;2023-02-08T03:30:23;4.50;;;3.47;;
40533;SDS011;26233;51.894;10.192;2023-02-08T03:32:58;3.73;;;3.37;;
40533;SDS011;26233;51.894;10.192;2023-02-08T03:35:33;2.90;;;2.50;;
40533;SDS011;26233;51.894;10.192;2023-02-08T03:38:06;2.20;;;1.80;;
40533;SDS011;26233;51.894;10.192;2023-02-08T03:40:37;1.40;;;1.27;;
40533;SDS011;26233;51.894;10.192;2023-02-08T03:43:09;1.50;;;1.40;;
40533;SDS011;26233;51.894;10.192;2023-02-08T03:45:41;1.17;;;1.07;;
40533;SDS011;26233;51.894;10.192;2023-02-08T03:48:14;0.83;;;0.83;;
40533;SDS011;26233;51.894;10.192;2023-02-08T03:50:46;0.90;;;0.90;;
40533;SDS011;26233;51.894;10.192;2023-02-08T03:53:16;0.80;;;0.80;;
40533;SDS011;26233;51.894;10.192;2023-02-08T03:55:47;1.47;;;1.33;;
40533;SDS011;26233;51.894;10.192;2023-02-08T03:58:22;3.67;;;2.07;;
40533;SDS011;26233;51.894;10.192;2023-02-08T04:00:54;2.70;;;2.13;;
40533;SDS011;26233;51.894;10.192;2023-02-08T04:03:29;3.37;;;2.33;;
40533;SDS011;26233;51.894;10.192;2023-02-08T04:05:59;2.87;;;2.40;;
40533;SDS011;26233;51.894;10.192;2023-02-08T04:08:26;1.93;;;1.50;;
40533;SDS011;26233;51.894;10.192;2023-02-08T04:10:53;1.30;;;1.20;;
40533;SDS011;26233;51.894;10.192;2023-02-08T04:13:20;1.13;;;1.00;;
40533;SDS011;26233;51.894;10.192;2023-02-08T04:15:47;0.90;;;0.90;;
40533;SDS011;26233;51.894;10.192;2023-02-08T04:18:14;0.83;;;0.80;;
40533;SDS011;26233;51.894;10.192;2023-02-08T04:20:41;0.83;;;0.80;;
40533;SDS011;26233;51.894;10.192;2023-02-08T04:23:09;1.43;;;0.73;;
40533;SDS011;26233;51.894;10.192;2023-02-08T04:25:36;0.80;;;0.80;;
40533;SDS011;26233;51.894;10.192;2023-02-08T04:28:04;0.80;;;0.80;;
40533;SDS011;26233;51.894;10.192;2023-02-08T04:30:31;0.70;;;0.70;;
40533;SDS011;26233;51.894;10.192;2023-02-08T04:32:58;0.70;;;0.70;;
40533;SDS011;26233;51.894;10.192;2023-02-08T04:35:25;0.87;;;0.87;;
40533;SDS011;26233;51.894;10.192;2023-02-08T04:37:52;0.60;;;0.60;;
40533;SDS011;26233;51.894;10.192;2023-02-08T04:40:20;0.60;;;0.60;;
40533;SDS011;26233;51.894;10.192;2023-02-08T04:42:47;0.70;;;0.70;;
40533;SDS011;26233;51.894;10.192;2023-02-08T04:45:15;0.67;;;0.67;;
40533;SDS011;26233;51.894;10.192;2023-02-08T04:47:42;0.60;;;0.60;;
40533;SDS011;26233;51.894;10.192;2023-02-08T04:50:09;0.63;;;0.63;;
40533;SDS011;26233;51.894;10.192;2023-02-08T04:52:36;0.70;;;0.70;;
40533;SDS011;26233;51.894;10.192;2023-02-08T04:55:03;0.77;;;0.77;;
40533;SDS011;26233;51.894;10.192;2023-02-08T04:57:32;1.00;;;0.90;;
40533;SDS011;26233;51.894;10.192;2023-02-08T04:59:59;0.80;;;0.80;;
40533;SDS011;26233;51.894;10.192;2023-02-08T05:02:26;0.90;;;0.90;;
40533;SDS011;26233;51.894;10.192;2023-02-08T05:04:53;1.00;;;0.90;;
40533;SDS011;26233;51.894;10.192;2023-02-08T05:07:20;1.33;;;1.10;;
40533;SDS011;26233;51.894;10.192;2023-02-08T05:09:48;1.10;;;1.00;;
40533;SDS011;26233;51.894;10.192;2023-02-08T05:12:16;1.23;;;1.10;;
40533;SDS011;26233;51.894;10.192;2023-02-08T05:14:45;1.20;;;1.10;;
40533;SDS011;26233;51.894;10.192;2023-02-08T05:17:12;1.23;;;1.13;;
40533;SDS011;26233;51.894;10.192;2023-02-08T05:19:39;2.30;;;1.20;;
40533;SDS011;26233;51.894;10.192;2023-02-08T05:22:06;1.30;;;1.20;;
40533;SDS011;26233;51.894;10.192;2023-02-08T05:24:33;1.30;;;1.20;;
40533;SDS011;26233;51.894;10.192;2023-02-08T05:27:00;1.60;;;1.50;;
40533;SDS011;26233;51.894;10.192;2023-02-08T05:29:27;2.00;;;1.60;;
40533;SDS011;26233;51.894;10.192;2023-02-08T05:31:58;2.33;;;1.47;;
40533;SDS011;26233;51.894;10.192;2023-02-08T05:34:25;1.97;;;1.60;;
40533;SDS011;26233;51.894;10.192;2023-02-08T05:36:52;2.17;;;1.60;;
40533;SDS011;26233;51.894;10.192;2023-02-08T05:39:19;2.10;;;1.77;;
40533;SDS011;26233;51.894;10.192;2023-02-08T05:41:46;2.50;;;2.00;;
40533;SDS011;26233;51.894;10.192;2023-02-08T05:44:13;2.47;;;2.00;;
40533;SDS011;26233;51.894;10.192;2023-02-08T05:46:40;2.20;;;2.00;;
40533;SDS011;26233;51.894;10.192;2023-02-08T05:49:08;2.27;;;2.00;;
40533;SDS011;26233;51.894;10.192;2023-02-08T05:51:35;2.23;;;1.97;;
40533;SDS011;26233;51.894;10.192;2023-02-08T05:54:03;1.80;;;1.70;;
40533;SDS011;26233;51.894;10.192;2023-02-08T05:56:30;2.10;;;1.90;;
40533;SDS011;26233;51.894;10.192;2023-02-08T05:58:58;1.73;;;1.60;;
40533;SDS011;26233;51.894;10.192;2023-02-08T06:01:25;1.63;;;1.53;;
40533;SDS011;26233;51.894;10.192;2023-02-08T06:03:52;2.83;;;2.00;;
40533;SDS011;26233;51.894;10.192;2023-02-08T06:06:21;2.73;;;2.07;;
40533;SDS011;26233;51.894;10.192;2023-02-08T06:08:48;2.60;;;2.30;;
40533;SDS011;26233;51.894;10.192;2023-02-08T06:11:15;4.37;;;2.20;;
40533;SDS011;26233;51.894;10.192;2023-02-08T06:13:45;2.53;;;2.30;;
40533;SDS011;26233;51.894;10.192;2023-02-08T06:16:13;2.53;;;2.30;;
40533;SDS011;26233;51.894;10.192;2023-02-08T06:18:41;2.30;;;2.10;;
40533;SDS011;26233;51.894;10.192;2023-02-08T06:21:08;2.37;;;2.17;;
40533;SDS011;26233;51.894;10.192;2023-02-08T06:23:37;3.13;;;2.27;;
40533;SDS011;26233;51.894;10.192;2023-02-08T06:26:08;2.97;;;2.20;;
40533;SDS011;26233;51.894;10.192;2023-02-08T06:28:44;2.17;;;1.80;;
40533;SDS011;26233;51.894;10.192;2023-02-08T06:31:11;2.50;;;1.83;;
40533;SDS011;26233;51.894;10.192;2023-02-08T06:33:38;2.10;;;1.90;;
40533;SDS011;26233;51.894;10.192;2023-02-08T06:36:05;2.00;;;1.70;;
40533;SDS011;26233;51.894;10.192;2023-02-08T06:38:33;2.57;;;1.90;;
40533;SDS011;26233;51.894;10.192;2023-02-08T06:41:01;2.10;;;1.90;;
40533;SDS011;26233;51.894;10.192;2023-02-08T06:43:28;2.23;;;2.00;;
40533;SDS011;26233;51.894;10.192;2023-02-08T06:45:55;2.13;;;1.93;;
40533;SDS011;26233;51.894;10.192;2023-02-08T06:48:22;2.77;;;2.20;;
40533;SDS011;26233;51.894;10.192;2023-02-08T06:50:50;2.10;;;1.90;;
40533;SDS011;26233;51.894;10.192;2023-02-08T06:53:17;3.83;;;2.97;;
40533;SDS011;26233;51.894;10.192;2023-02-08T06:55:46;4.37;;;3.80;;
40533;SDS011;26233;51.894;10.192;2023-02-08T06:58:15;8.93;;;6.57;;
40533;SDS011;26233;51.894;10.192;2023-02-08T07:00:42;6.90;;;6.10;;
40533;SDS011;26233;51.894;10.192;2023-02-08T07:03:10;7.10;;;6.13;;
40533;SDS011;26233;51.894;10.192;2023-02-08T07:05:38;6.00;;;5.40;;
40533;SDS011;26233;51.894;10.192;2023-02-08T07:08:06;4.10;;;3.70;;
40533;SDS011;26233;51.894;10.192;2023-02-08T07:10:33;3.03;;;2.73;;
40533;SDS011;26233;51.894;10.192;2023-02-08T07:13:00;3.63;;;2.47;;
40533;SDS011;26233;51.894;10.192;2023-02-08T07:15:29;2.30;;;2.10;;
40533;SDS011;26233;51.894;10.192;2023-02-08T07:17:56;2.53;;;2.27;;
40533;SDS011;26233;51.894;10.192;2023-02-08T07:20:24;2.37;;;2.13;;
40533;SDS011;26233;51.894;10.192;2023-02-08T07:22:51;2.20;;;1.97;;
40533;SDS011;26233;51.894;10.192;2023-02-08T07:25:18;2.10;;;1.90;;
40533;SDS011;26233;51.894;10.192;2023-02-08T07:27:45;3.00;;;2.03;;
40533;SDS011;26233;51.894;10.192;2023-02-08T07:30:12;1.90;;;1.80;;
40533;SDS011;26233;51.894;10.192;2023-02-08T07:32:41;3.90;;;2.10;;
40533;SDS011;26233;51.894;10.192;2023-02-08T07:35:08;2.20;;;2.00;;
40533;SDS011;26233;51.894;10.192;2023-02-08T07:37:35;2.00;;;1.77;;
40533;SDS011;26233;51.894;10.192;2023-02-08T07:40:02;2.20;;;2.00;;
40533;SDS011;26233;51.894;10.192;2023-02-08T07:42:29;1.83;;;1.53;;
40533;SDS011;26233;51.894;10.192;2023-02-08T07:44:56;2.13;;;1.93;;
40533;SDS011;26233;51.894;10.192;2023-02-08T07:47:23;2.10;;;1.90;;
40533;SDS011;26233;51.894;10.192;2023-02-08T07:49:51;2.87;;;2.33;;
40533;SDS011;26233;51.894;10.192;2023-02-08T07:52:18;2.30;;;2.03;;
40533;SDS011;26233;51.894;10.192;2023-02-08T07:54:45;2.40;;;2.20;;
40533;SDS011;26233;51.894;10.192;2023-02-08T07:57:14;2.60;;;2.40;;
40533;SDS011;26233;51.894;10.192;2023-02-08T07:59:45;3.13;;;2.83;;
40533;SDS011;26233;51.894;10.192;2023-02-08T08:02:13;3.60;;;3.07;;
40533;SDS011;26233;51.894;10.192;2023-02-08T08:04:40;4.13;;;3.53;;
40533;SDS011;26233;51.894;10.192;2023-02-08T08:07:09;4.20;;;3.70;;
40533;SDS011;26233;51.894;10.192;2023-02-08T08:09:36;5.40;;;3.80;;
40533;SDS011;26233;51.894;10.192;2023-02-08T08:12:03;4.53;;;3.70;;
40533;SDS011;26233;51.894;10.192;2023-02-08T08:14:30;6.40;;;4.70;;
40533;SDS011;26233;51.894;10.192;2023-02-08T08:16:57;4.00;;;3.60;;
40533;SDS011;26233;51.894;10.192;2023-02-08T08:19:24;4.90;;;3.70;;
40533;SDS011;26233;51.894;10.192;2023-02-08T08:21:52;5.00;;;3.90;;
40533;SDS011;26233;51.894;10.192;2023-02-08T08:24:20;4.90;;;4.03;;
40533;SDS011;26233;51.894;10.192;2023-02-08T08:26:47;4.50;;;3.57;;
40533;SDS011;26233;51.894;10.192;2023-02-08T08:29:17;3.90;;;3.23;;
40533;SDS011;26233;51.894;10.192;2023-02-08T08:31:45;3.43;;;3.00;;
40533;SDS011;26233;51.894;10.192;2023-02-08T08:34:12;4.57;;;3.13;;
40533;SDS011;26233;51.894;10.192;2023-02-08T08:36:39;4.17;;;3.07;;
40533;SDS011;26233;51.894;10.192;2023-02-08T08:39:06;5.37;;;4.00;;
40533;SDS011;26233;51.894;10.192;2023-02-08T08:41:34;4.70;;;4.20;;
40533;SDS011;26233;51.894;10.192;2023-02-08T08:44:02;5.40;;;4.07;;
40533;SDS011;26233;51.894;10.192;2023-02-08T08:46:29;3.60;;;3.30;;
40533;SDS011;26233;51.894;10.192;2023-02-08T08:48:56;4.07;;;3.60;;
40533;SDS011;26233;51.894;10.192;2023-02-08T08:51:23;3.87;;;3.30;;
40533;SDS011;26233;51.894;10.192;2023-02-08T08:53:51;3.87;;;3.23;;
40533;SDS011;26233;51.894;10.192;2023-02-08T08:56:17;4.07;;;3.20;;
40533;SDS011;26233;51.894;10.192;2023-02-08T08:58:46;3.13;;;2.47;;
40533;SDS011;26233;51.894;10.192;2023-02-08T09:01:13;2.87;;;2.60;;
40533;SDS011;26233;51.894;10.192;2023-02-08T09:03:40;2.40;;;2.20;;
40533;SDS011;26233;51.894;10.192;2023-02-08T09:06:07;2.70;;;2.50;;
40533;SDS011;26233;51.894;10.192;2023-02-08T09:08:34;2.63;;;2.40;;
40533;SDS011;26233;51.894;10.192;2023-02-08T09:11:04;2.80;;;2.50;;
40533;SDS011;26233;51.894;10.192;2023-02-08T09:13:33;2.40;;;2.20;;
40533;SDS011;26233;51.894;10.192;2023-02-08T09:16:04;2.73;;;2.47;;
40533;SDS011;26233;51.894;10.192;2023-02-08T09:18:32;3.10;;;2.80;;
40533;SDS011;26233;51.894;10.192;2023-02-08T09:21:03;3.20;;;2.80;;
40533;SDS011;26233;51.894;10.192;2023-02-08T09:23:31;4.40;;;3.92;;
40533;SDS011;26233;51.894;10.192;2023-02-08T09:26:00;3.63;;;3.30;;
40533;SDS011;26233;51.894;10.192;2023-02-08T09:28:28;4.15;;;3.60;;
40533;SDS011;26233;51.894;10.192;2023-02-08T09:30:55;4.18;;;3.50;;
40533;SDS011;26233;51.894;10.192;2023-02-08T09:33:24;3.75;;;3.20;;
40533;SDS011;26233;51.894;10.192;2023-02-08T09:35:51;4.00;;;3.60;;
40533;SDS011;26233;51.894;10.192;2023-02-08T09:38:18;5.05;;;4.05;;
40533;SDS011;26233;51.894;10.192;2023-02-08T09:40:46;4.78;;;4.10;;
40533;SDS011;26233;51.894;10.192;2023-02-08T09:43:24;6.22;;;4.43;;
40533;SDS011;26233;51.894;10.192;2023-02-08T09:46:01;6.10;;;4.53;;
40533;SDS011;26233;51.894;10.192;2023-02-08T09:48:37;4.57;;;3.92;;
40533;SDS011;26233;51.894;10.192;2023-02-08T09:51:06;5.55;;;4.15;;
40533;SDS011;26233;51.894;10.192;2023-02-08T09:53:42;4.45;;;3.67;;
40533;SDS011;26233;51.894;10.192;2023-02-08T09:56:15;5.32;;;4.38;;
40533;SDS011;26233;51.894;10.192;2023-02-08T09:58:50;5.70;;;4.57;;
40533;SDS011;26233;51.894;10.192;2023-02-08T10:01:20;5.72;;;4.60;;
40533;SDS011;26233;51.894;10.192;2023-02-08T10:03:51;5.95;;;4.57;;
40533;SDS011;26233;51.894;10.192;2023-02-08T10:06:22;7.22;;;5.93;;
40533;SDS011;26233;51.894;10.192;2023-02-08T10:08:50;10.18;;;6.93;;
40533;SDS011;26233;51.894;10.192;2023-02-08T10:11:24;7.97;;;6.40;;
40533;SDS011;26233;51.894;10.192;2023-02-08T10:14:14;10.10;;;6.47;;
40533;SDS011;26233;51.894;10.192;2023-02-08T10:17:01;7.88;;;6.38;;
40533;SDS011;26233;51.894;10.192;2023-02-08T10:19:45;7.60;;;6.25;;
40533;SDS011;26233;51.894;10.192;2023-02-08T10:22:27;7.03;;;5.93;;
40533;SDS011;26233;51.894;10.192;2023-02-08T10:25:11;9.48;;;5.85;;
40533;SDS011;26233;51.894;10.192;2023-02-08T10:27:55;9.23;;;6.18;;
40533;SDS011;26233;51.894;10.192;2023-02-08T10:30:42;9.32;;;6.15;;
40533;SDS011;26233;51.894;10.192;2023-02-08T10:33:20;9.27;;;7.20;;
40533;SDS011;26233;51.894;10.192;2023-02-08T10:35:53;9.43;;;7.32;;
40533;SDS011;26233;51.894;10.192;2023-02-08T10:38:25;10.82;;;8.18;;
40533;SDS011;26233;51.894;10.192;2023-02-08T10:40:54;9.43;;;6.82;;
40533;SDS011;26233;51.894;10.192;2023-02-08T10:43:27;7.93;;;6.93;;
40533;SDS011;26233;51.894;10.192;2023-02-08T10:46:06;8.30;;;7.03;;
40533;SDS011;26233;51.894;10.192;2023-02-08T10:48:47;9.02;;;6.57;;
40533;SDS011;26233;51.894;10.192;2023-02-08T10:51:30;9.35;;;7.35;;
40533;SDS011;26233;51.894;10.192;2023-02-08T10:53:57;6.93;;;6.20;;
40533;SDS011;26233;51.894;10.192;2023-02-08T10:56:33;7.90;;;7.10;;
40533;SDS011;26233;51.894;10.192;2023-02-08T10:59:19;7.85;;;7.07;;
40533;SDS011;26233;51.894;10.192;2023-02-08T11:01:48;8.27;;;7.38;;
40533;SDS011;26233;51.894;10.192;2023-02-08T11:04:16;8.63;;;7.70;;
40533;SDS011;26233;51.894;10.192;2023-02-08T11:06:46;8.68;;;7.88;;
40533;SDS011;26233;51.894;10.192;2023-02-08T11:09:19;9.85;;;8.13;;
40533;SDS011;26233;51.894;10.192;2023-02-08T11:11:49;9.63;;;8.63;;
40533;SDS011;26233;51.894;10.192;2023-02-08T11:14:19;9.85;;;8.45;;
40533;SDS011;26233;51.894;10.192;2023-02-08T11:16:52;9.18;;;8.00;;
40533;SDS011;26233;51.894;10.192;2023-02-08T11:19:35;9.35;;;8.40;;
40533;SDS011;26233;51.894;10.192;2023-02-08T11:22:12;9.93;;;8.50;;
40533;SDS011;26233;51.894;10.192;2023-02-08T11:24:41;8.95;;;8.05;;
40533;SDS011;26233;51.894;10.192;2023-02-08T11:27:15;8.63;;;7.80;;
40533;SDS011;26233;51.894;10.192;2023-02-08T11:29:44;8.98;;;8.15;;
40533;SDS011;26233;51.894;10.192;2023-02-08T11:32:15;8.73;;;7.82;;
40533;SDS011;26233;51.894;10.192;2023-02-08T11:34:44;8.70;;;7.80;;
40533;SDS011;26233;51.894;10.192;2023-02-08T11:37:14;8.75;;;7.88;;
40533;SDS011;26233;51.894;10.192;2023-02-08T11:39:50;8.70;;;7.80;;
40533;SDS011;26233;51.894;10.192;2023-02-08T11:42:20;9.30;;;8.40;;
40533;SDS011;26233;51.894;10.192;2023-02-08T11:44:50;9.23;;;8.25;;
40533;SDS011;26233;51.894;10.192;2023-02-08T11:47:21;8.98;;;7.47;;
40533;SDS011;26233;51.894;10.192;2023-02-08T11:49:51;8.13;;;7.32;;
40533;SDS011;26233;51.894;10.192;2023-02-08T11:52:22;8.88;;;7.32;;
40533;SDS011;26233;51.894;10.192;2023-02-08T11:54:51;9.90;;;6.75;;
40533;SDS011;26233;51.894;10.192;2023-02-08T11:57:20;7.90;;;6.80;;
40533;SDS011;26233;51.894;10.192;2023-02-08T12:00:11;7.00;;;6.30;;
40533;SDS011;26233;51.894;10.192;2023-02-08T12:02:44;6.90;;;6.20;;
40533;SDS011;26233;51.894;10.192;2023-02-08T12:05:12;6.28;;;5.68;;
40533;SDS011;26233;51.894;10.192;2023-02-08T12:07:51;5.55;;;5.00;;
40533;SDS011;26233;51.894;10.192;2023-02-08T12:10:35;5.32;;;4.60;;
40533;SDS011;26233;51.894;10.192;2023-02-08T12:13:49;5.30;;;4.05;;
40533;SDS011;26233;51.894;10.192;2023-02-08T12:16:34;5.38;;;4.30;;
40533;SDS011;26233;51.894;10.192;2023-02-08T12:19:26;4.55;;;3.88;;
40533;SDS011;26233;51.894;10.192;2023-02-08T12:22:22;4.05;;;3.65;;
40533;SDS011;26233;51.894;10.192;2023-02-08T12:24:54;4.05;;;3.33;;
40533;SDS011;26233;51.894;10.192;2023-02-08T12:27:40;4.93;;;3.63;;
40533;SDS011;26233;51.894;10.192;2023-02-08T12:30:15;4.95;;;3.42;;
40533;SDS011;26233;51.894;10.192;2023-02-08T12:32:56;4.00;;;3.58;;
40533;SDS011;26233;51.894;10.192;2023-02-08T12:35:56;3.72;;;2.78;;
40533;SDS011;26233;51.894;10.192;2023-02-08T12:38:45;3.40;;;2.92;;
40533;SDS011;26233;51.894;10.192;2023-02-08T12:41:53;3.25;;;2.95;;
40533;SDS011;26233;51.894;10.192;2023-02-08T12:44:42;4.03;;;2.83;;
40533;SDS011;26233;51.894;10.192;2023-02-08T12:47:29;3.40;;;3.10;;
40533;SDS011;26233;51.894;10.192;2023-02-08T12:50:11;3.08;;;2.67;;
40533;SDS011;26233;51.894;10.192;2023-02-08T12:52:49;3.92;;;3.13;;
40533;SDS011;26233;51.894;10.192;2023-02-08T12:55:22;3.45;;;3.15;;
40533;SDS011;26233;51.894;10.192;2023-02-08T12:57:55;2.88;;;2.58;;
40533;SDS011;26233;51.894;10.192;2023-02-08T13:00:26;3.05;;;2.65;;
40533;SDS011;26233;51.894;10.192;2023-02-08T13:02:57;3.20;;;2.90;;
40533;SDS011;26233;51.894;10.192;2023-02-08T13:05:32;2.97;;;2.45;;
40533;SDS011;26233;51.894;10.192;2023-02-08T13:08:06;3.70;;;2.42;;
40533;SDS011;26233;51.894;10.192;2023-02-08T13:10:42;3.08;;;2.45;;
40533;SDS011;26233;51.894;10.192;2023-02-08T13:13:17;2.85;;;2.30;;
40533;SDS011;26233;51.894;10.192;2023-02-08T13:15:51;2.60;;;2.40;;
40533;SDS011;26233;51.894;10.192;2023-02-08T13:18:22;2.72;;;2.45;;
40533;SDS011;26233;51.894;10.192;2023-02-08T13:20:55;2.92;;;2.50;;
40533;SDS011;26233;51.894;10.192;2023-02-08T13:23:27;2.60;;;2.40;;
40533;SDS011;26233;51.894;10.192;2023-02-08T13:26:02;2.85;;;2.50;;
40533;SDS011;26233;51.894;10.192;2023-02-08T13:28:35;2.58;;;2.22;;
40533;SDS011;26233;51.894;10.192;2023-02-08T13:31:05;2.45;;;2.25;;
40533;SDS011;26233;51.894;10.192;2023-02-08T13:33:39;2.80;;;2.35;;
40533;SDS011;26233;51.894;10.192;2023-02-08T13:36:17;2.42;;;2.22;;
40533;SDS011;26233;51.894;10.192;2023-02-08T13:38:48;2.95;;;2.30;;
40533;SDS011;26233;51.894;10.192;2023-02-08T13:41:16;2.45;;;2.25;;
40533;SDS011;26233;51.894;10.192;2023-02-08T13:43:47;3.05;;;2.10;;
40533;SDS011;26233;51.894;10.192;2023-02-08T13:46:18;2.75;;;2.53;;
40533;SDS011;26233;51.894;10.192;2023-02-08T13:48:48;2.90;;;2.40;;
40533;SDS011;26233;51.894;10.192;2023-02-08T13:54:20;2.60;;;2.40;;
40533;SDS011;26233;51.894;10.192;2023-02-08T13:56:48;3.30;;;2.30;;
40533;SDS011;26233;51.894;10.192;2023-02-08T13:59:31;3.03;;;2.15;;
40533;SDS011;26233;51.894;10.192;2023-02-08T14:08:07;2.33;;;2.10;;
40533;SDS011;26233;51.894;10.192;2023-02-08T14:10:49;2.17;;;1.98;;
40533;SDS011;26233;51.894;10.192;2023-02-08T14:13:28;2.00;;;1.80;;
40533;SDS011;26233;51.894;10.192;2023-02-08T14:19:00;2.42;;;1.88;;
40533;SDS011;26233;51.894;10.192;2023-02-08T14:21:31;2.70;;;2.20;;
40533;SDS011;26233;51.894;10.192;2023-02-08T14:24:03;3.20;;;2.45;;
40533;SDS011;26233;51.894;10.192;2023-02-08T14:26:33;2.40;;;2.20;;
40533;SDS011;26233;51.894;10.192;2023-02-08T14:29:02;2.78;;;2.33;;
40533;SDS011;26233;51.894;10.192;2023-02-08T14:31:38;3.17;;;2.30;;
40533;SDS011;26233;51.894;10.192;2023-02-08T14:34:25;2.78;;;2.25;;
40533;SDS011;26233;51.894;10.192;2023-02-08T14:36:57;4.43;;;2.35;;
40533;SDS011;26233;51.894;10.192;2023-02-08T14:39:29;2.83;;;2.58;;
40533;SDS011;26233;51.894;10.192;2023-02-08T14:41:58;3.00;;;2.70;;
40533;SDS011;26233;51.894;10.192;2023-02-08T14:47:51;3.30;;;2.78;;
40533;SDS011;26233;51.894;10.192;2023-02-08T14:50:28;2.47;;;2.28;;
40533;SDS011;26233;51.894;10.192;2023-02-08T14:53:12;3.53;;;2.58;;
40533;SDS011;26233;51.894;10.192;2023-02-08T14:55:47;3.38;;;2.90;;
40533;SDS011;26233;51.894;10.192;2023-02-08T14:58:22;3.13;;;2.83;;
40533;SDS011;26233;51.894;10.192;2023-02-08T15:00:55;3.10;;;2.80;;
40533;SDS011;26233;51.894;10.192;2023-02-08T15:03:28;3.30;;;3.00;;
40533;SDS011;26233;51.894;10.192;2023-02-08T15:06:03;3.78;;;3.20;;
40533;SDS011;26233;51.894;10.192;2023-02-08T15:09:12;3.37;;;2.97;;
40533;SDS011;26233;51.894;10.192;2023-02-08T15:11:49;4.77;;;3.30;;
40533;SDS011;26233;51.894;10.192;2023-02-08T15:14:25;3.77;;;3.10;;
40533;SDS011;26233;51.894;10.192;2023-02-08T15:16:53;3.70;;;3.15;;
40533;SDS011;26233;51.894;10.192;2023-02-08T15:19:23;3.73;;;3.33;;
40533;SDS011;26233;51.894;10.192;2023-02-08T15:21:55;3.47;;;3.17;;
40533;SDS011;26233;51.894;10.192;2023-02-08T15:24:50;4.17;;;3.70;;
40533;SDS011;26233;51.894;10.192;2023-02-08T15:27:19;3.57;;;3.23;;